sensor_id;sensor_type;location;lat;lon;timestamp;pressure;altitude;pressure_sealevel;temperature;humidity
78123;BME280;67376;44.802;10.332;2023-03-31T00:00:20;101143.19;;;20.52;43.44
78123;BME280;67376;44.802;10.332;2023-03-31T00:02:45;101136.94;;;20.51;42.37
78123;BME280;67376;44.802;10.332;2023-03-31T00:05:10;101135.28;;;20.50;43.06
78123;BME280;67376;44.802;10.332;2023-03-31T00:07:42;101147.19;;;20.49;42.65
78123;BME280;67376;44.802;10.332;2023-03-31T00:10:08;101153.22;;;20.51;42.85
78123;BME280;67376;44.802;10.332;2023-03-31T00:12:35;101152.38;;;20.51;42.46
78123;BME280;67376;44.802;10.332;2023-03-31T00:15:00;101157.81;;;20.51;42.73
78123;BME280;67376;44.802;10.332;2023-03-31T00:17:26;101162.19;;;20.52;42.34
78123;BME280;67376;44.802;10.332;2023-03-31T00:19:51;101145.28;;;20.50;42.76
78123;BME280;67376;44.802;10.332;2023-03-31T00:22:18;101145.06;;;20.51;42.23
78123;BME280;67376;44.802;10.332;2023-03-31T00:24:46;101143.41;;;20.50;42.50
78123;BME280;67376;44.802;10.332;2023-03-31T00:27:12;101134.44;;;20.50;43.12
78123;BME280;67376;44.802;10.332;2023-03-31T00:29:37;101129.84;;;20.50;42.74
78123;BME280;67376;44.802;10.332;2023-03-31T00:32:06;101124.44;;;20.50;42.68
78123;BME280;67376;44.802;10.332;2023-03-31T00:34:32;101109.44;;;20.48;42.87
78123;BME280;67376;44.802;10.332;2023-03-31T00:36:57;101111.91;;;20.49;42.29
78123;BME280;67376;44.802;10.332;2023-03-31T00:39:27;101119.00;;;20.50;42.99
78123;BME280;67376;44.802;10.332;2023-03-31T00:41:56;101115.22;;;20.51;42.54
78123;BME280;67376;44.802;10.332;2023-03-31T00:44:23;101112.75;;;20.50;42.15
78123;BME280;67376;44.802;10.332;2023-03-31T00:47:15;101104.47;;;20.44;42.95
78123;BME280;67376;44.802;10.332;2023-03-31T00:49:46;101114.41;;;20.51;42.57
78123;BME280;67376;44.802;10.332;2023-03-31T00:52:18;101116.28;;;20.50;42.94
78123;BME280;67376;44.802;10.332;2023-03-31T00:54:50;101115.47;;;20.50;42.07
78123;BME280;67376;44.802;10.332;2023-03-31T00:57:18;101115.47;;;20.50;42.09
78123;BME280;67376;44.802;10.332;2023-03-31T00:59:58;101106.50;;;20.49;42.07
78123;BME280;67376;44.802;10.332;2023-03-31T01:02:26;101105.66;;;20.49;42.41
78123;BME280;67376;44.802;10.332;2023-03-31T01:04:56;101106.50;;;20.49;42.51
78123;BME280;67376;44.802;10.332;2023-03-31T01:07:34;101110.88;;;20.50;42.09
78123;BME280;67376;44.802;10.332;2023-03-31T01:10:03;101108.16;;;20.50;42.63
78123;BME280;67376;44.802;10.332;2023-03-31T01:12:31;101101.06;;;20.49;42.62
78123;BME280;67376;44.802;10.332;2023-03-31T01:14:58;101095.66;;;20.49;42.25
78123;BME280;67376;44.802;10.332;2023-03-31T01:17:24;101078.53;;;20.49;42.22
78123;BME280;67376;44.802;10.332;2023-03-31T01:25:59;101077.72;;;20.48;42.19
78123;BME280;67376;44.802;10.332;2023-03-31T01:28:53;101081.25;;;20.49;41.61
78123;BME280;67376;44.802;10.332;2023-03-31T01:42:56;101071.22;;;20.49;41.85
78123;BME280;67376;44.802;10.332;2023-03-31T01:48:15;101043.50;;;20.47;42.17
78123;BME280;67376;44.802;10.332;2023-03-31T01:54:29;101037.03;;;20.48;42.65
78123;BME280;67376;44.802;10.332;2023-03-31T01:57:00;101047.88;;;20.48;41.55
78123;BME280;67376;44.802;10.332;2023-03-31T02:02:32;101034.53;;;20.47;41.92
78123;BME280;67376;44.802;10.332;2023-03-31T02:05:06;101020.75;;;20.48;42.56
78123;BME280;67376;44.802;10.332;2023-03-31T02:07:42;101021.59;;;20.49;41.42
78123;BME280;67376;44.802;10.332;2023-03-31T02:10:11;101012.03;;;20.46;41.99
78123;BME280;67376;44.802;10.332;2023-03-31T02:12:38;101011.19;;;20.46;41.85
78123;BME280;67376;44.802;10.332;2023-03-31T02:15:07;101005.53;;;20.47;41.84
78123;BME280;67376;44.802;10.332;2023-03-31T02:17:34;101010.97;;;20.47;42.02
78123;BME280;67376;44.802;10.332;2023-03-31T02:20:09;101019.31;;;20.46;41.95
78123;BME280;67376;44.802;10.332;2023-03-31T02:22:38;101031.00;;;20.46;42.07
78123;BME280;67376;44.802;10.332;2023-03-31T02:25:09;101043.75;;;20.46;41.69
78123;BME280;67376;44.802;10.332;2023-03-31T02:27:40;101039.97;;;20.47;41.73
78123;BME280;67376;44.802;10.332;2023-03-31T02:30:08;101041.03;;;20.46;42.61
78123;BME280;67376;44.802;10.332;2023-03-31T02:32:41;101021.22;;;20.45;42.38
78123;BME280;67376;44.802;10.332;2023-03-31T02:35:14;101028.28;;;20.46;41.51
78123;BME280;67376;44.802;10.332;2023-03-31T02:37:40;101036.44;;;20.46;41.96
78123;BME280;67376;44.802;10.332;2023-03-31T02:40:10;101030.19;;;20.46;41.60
78123;BME280;67376;44.802;10.332;2023-03-31T02:42:37;101044.56;;;20.46;41.51
78123;BME280;67376;44.802;10.332;2023-03-31T02:45:05;101032.06;;;20.45;41.88
78123;BME280;67376;44.802;10.332;2023-03-31T02:47:31;101025.59;;;20.46;41.38
78123;BME280;67376;44.802;10.332;2023-03-31T02:49:59;101020.63;;;20.43;41.64
78123;BME280;67376;44.802;10.332;2023-03-31T02:52:44;101018.50;;;20.45;41.76
78123;BME280;67376;44.802;10.332;2023-03-31T02:55:23;101010.38;;;20.45;42.17
78123;BME280;67376;44.802;10.332;2023-03-31T03:06:20;101004.34;;;20.43;41.50
78123;BME280;67376;44.802;10.332;2023-03-31T03:11:35;101003.28;;;20.44;41.68
78123;BME280;67376;44.802;10.332;2023-03-31T03:14:33;100986.19;;;20.43;41.83
78123;BME280;67376;44.802;10.332;2023-03-31T03:17:06;100988.91;;;20.43;42.17
78123;BME280;67376;44.802;10.332;2023-03-31T03:19:34;101000.81;;;20.42;42.11
78123;BME280;67376;44.802;10.332;2023-03-31T03:21:59;100993.50;;;20.43;41.46
78123;BME280;67376;44.802;10.332;2023-03-31T03:24:25;100981.81;;;20.42;42.24
78123;BME280;67376;44.802;10.332;2023-03-31T03:26:54;100975.56;;;20.42;42.02
78123;BME280;67376;44.802;10.332;2023-03-31T03:29:20;100970.97;;;20.42;41.25
78123;BME280;67376;44.802;10.332;2023-03-31T03:31:45;100971.19;;;20.41;42.24
78123;BME280;67376;44.802;10.332;2023-03-31T03:34:11;100970.97;;;20.42;41.61
78123;BME280;67376;44.802;10.332;2023-03-31T03:36:37;100963.06;;;20.41;41.66
78123;BME280;67376;44.802;10.332;2023-03-31T03:39:04;100953.03;;;20.41;41.55
78123;BME280;67376;44.802;10.332;2023-03-31T03:41:30;100956.59;;;20.42;41.06
78123;BME280;67376;44.802;10.332;2023-03-31T03:43:57;100954.94;;;20.41;41.97
78123;BME280;67376;44.802;10.332;2023-03-31T03:46:23;100958.47;;;20.41;41.92
78123;BME280;67376;44.802;10.332;2023-03-31T03:48:48;100966.59;;;20.41;41.78
78123;BME280;67376;44.802;10.332;2023-03-31T03:51:13;100975.56;;;20.42;41.00
78123;BME280;67376;44.802;10.332;2023-03-31T03:53:39;100980.16;;;20.41;41.99
78123;BME280;67376;44.802;10.332;2023-03-31T03:56:04;100979.34;;;20.41;41.27
78123;BME280;67376;44.802;10.332;2023-03-31T03:58:30;100979.34;;;20.41;41.70
78123;BME280;67376;44.802;10.332;2023-03-31T04:00:55;100973.91;;;20.41;41.59
78123;BME280;67376;44.802;10.332;2023-03-31T04:03:21;100974.75;;;20.41;41.73
78123;BME280;67376;44.802;10.332;2023-03-31T04:05:47;100970.38;;;20.40;41.95
78123;BME280;67376;44.802;10.332;2023-03-31T04:08:14;100984.75;;;20.41;41.57
78123;BME280;67376;44.802;10.332;2023-03-31T04:10:44;100989.97;;;20.42;41.81
78123;BME280;67376;44.802;10.332;2023-03-31T04:13:10;100989.97;;;20.42;41.35
78123;BME280;67376;44.802;10.332;2023-03-31T04:15:35;101000.81;;;20.42;41.39
78123;BME280;67376;44.802;10.332;2023-03-31T04:18:00;100994.78;;;20.40;41.80
78123;BME280;67376;44.802;10.332;2023-03-31T04:20:26;100994.78;;;20.40;42.00
78123;BME280;67376;44.802;10.332;2023-03-31T04:22:52;100997.50;;;20.40;41.70
78123;BME280;67376;44.802;10.332;2023-03-31T04:25:18;100992.91;;;20.41;41.22
78123;BME280;67376;44.802;10.332;2023-03-31T04:27:50;100985.00;;;20.39;41.34
78123;BME280;67376;44.802;10.332;2023-03-31T04:30:22;100990.19;;;20.41;41.51
78123;BME280;67376;44.802;10.332;2023-03-31T04:32:53;100978.94;;;20.37;41.63
78123;BME280;67376;44.802;10.332;2023-03-31T04:35:21;100985.59;;;20.41;41.72
78123;BME280;67376;44.802;10.332;2023-03-31T04:37:48;100974.75;;;20.41;41.68
78123;BME280;67376;44.802;10.332;2023-03-31T04:40:14;100969.53;;;20.40;41.20
78123;BME280;67376;44.802;10.332;2023-03-31T04:42:40;100973.91;;;20.41;41.52
78123;BME280;67376;44.802;10.332;2023-03-31T04:45:06;100966.84;;;20.40;41.55
78123;BME280;67376;44.802;10.332;2023-03-31T04:47:32;100965.78;;;20.41;41.20
78123;BME280;67376;44.802;10.332;2023-03-31T04:49:57;100961.41;;;20.40;41.07
78123;BME280;67376;44.802;10.332;2023-03-31T04:52:22;100958.69;;;20.40;42.03
78123;BME280;67376;44.802;10.332;2023-03-31T04:54:48;100953.03;;;20.41;41.90
78123;BME280;67376;44.802;10.332;2023-03-31T04:57:13;100952.22;;;20.41;41.10
78123;BME280;67376;44.802;10.332;2023-03-31T04:59:38;100953.50;;;20.38;41.89
78123;BME280;67376;44.802;10.332;2023-03-31T05:02:04;100954.09;;;20.40;41.37
78123;BME280;67376;44.802;10.332;2023-03-31T05:04:29;100940.53;;;20.40;42.18
78123;BME280;67376;44.802;10.332;2023-03-31T05:06:55;100938.88;;;20.39;41.21
78123;BME280;67376;44.802;10.332;2023-03-31T05:09:20;100944.09;;;20.41;41.91
78123;BME280;67376;44.802;10.332;2023-03-31T05:11:46;100938.66;;;20.41;41.19
78123;BME280;67376;44.802;10.332;2023-03-31T05:14:11;100933.47;;;20.39;41.93
78123;BME280;67376;44.802;10.332;2023-03-31T05:16:37;100940.31;;;20.42;42.03
78123;BME280;67376;44.802;10.332;2023-03-31T05:19:02;100944.91;;;20.41;42.10
78123;BME280;67376;44.802;10.332;2023-03-31T05:21:28;100942.19;;;20.41;41.52
78123;BME280;67376;44.802;10.332;2023-03-31T05:23:55;100926.16;;;20.40;41.68
78123;BME280;67376;44.802;10.332;2023-03-31T05:26:20;100927.81;;;20.41;41.75
78123;BME280;67376;44.802;10.332;2023-03-31T05:28:49;100911.53;;;20.41;41.44
78123;BME280;67376;44.802;10.332;2023-03-31T05:31:15;100899.63;;;20.42;41.55
78123;BME280;67376;44.802;10.332;2023-03-31T05:33:40;100905.06;;;20.42;42.02
78123;BME280;67376;44.802;10.332;2023-03-31T05:36:11;100916.72;;;20.42;41.59
78123;BME280;67376;44.802;10.332;2023-03-31T05:38:37;100916.72;;;20.42;41.39
78123;BME280;67376;44.802;10.332;2023-03-31T05:41:03;100917.78;;;20.41;41.56
78123;BME280;67376;44.802;10.332;2023-03-31T05:43:28;100926.97;;;20.40;41.21
78123;BME280;67376;44.802;10.332;2023-03-31T05:45:54;100932.19;;;20.42;42.27
78123;BME280;67376;44.802;10.332;2023-03-31T05:48:19;100921.31;;;20.42;41.80
78123;BME280;67376;44.802;10.332;2023-03-31T05:50:45;100918.38;;;20.43;41.87
78123;BME280;67376;44.802;10.332;2023-03-31T05:53:11;100926.53;;;20.43;41.41
78123;BME280;67376;44.802;10.332;2023-03-31T05:55:37;100915.97;;;20.35;40.82
78123;BME280;67376;44.802;10.332;2023-03-31T05:58:02;100911.38;;;19.76;39.31
78123;BME280;67376;44.802;10.332;2023-03-31T06:00:28;100915.94;;;19.21;38.69
78123;BME280;67376;44.802;10.332;2023-03-31T06:02:53;100915.72;;;19.04;38.15
78123;BME280;67376;44.802;10.332;2023-03-31T06:05:19;100915.00;;;18.59;38.53
78123;BME280;67376;44.802;10.332;2023-03-31T06:07:44;100911.72;;;18.50;38.95
78123;BME280;67376;44.802;10.332;2023-03-31T06:10:10;100913.78;;;18.55;38.59
78123;BME280;67376;44.802;10.332;2023-03-31T06:12:35;100906.28;;;18.57;38.45
78123;BME280;67376;44.802;10.332;2023-03-31T06:15:02;100896.28;;;18.57;38.07
78123;BME280;67376;44.802;10.332;2023-03-31T06:17:27;100887.56;;;18.87;38.52
78123;BME280;67376;44.802;10.332;2023-03-31T06:19:53;100883.28;;;19.16;37.68
78123;BME280;67376;44.802;10.332;2023-03-31T06:22:18;100886.41;;;19.37;36.99
78123;BME280;67376;44.802;10.332;2023-03-31T06:24:44;100891.47;;;19.52;37.78
78123;BME280;67376;44.802;10.332;2023-03-31T06:27:09;100879.06;;;19.63;37.60
78123;BME280;67376;44.802;10.332;2023-03-31T06:29:34;100882.25;;;19.71;38.68
78123;BME280;67376;44.802;10.332;2023-03-31T06:32:00;100868.25;;;19.74;38.29
78123;BME280;67376;44.802;10.332;2023-03-31T06:34:26;100867.94;;;19.83;37.83
78123;BME280;67376;44.802;10.332;2023-03-31T06:36:51;100871.84;;;19.87;37.86
78123;BME280;67376;44.802;10.332;2023-03-31T06:39:17;100857.84;;;19.90;38.15
78123;BME280;67376;44.802;10.332;2023-03-31T06:41:43;100855.72;;;19.92;37.75
78123;BME280;67376;44.802;10.332;2023-03-31T06:44:08;100851.72;;;19.94;38.57
78123;BME280;67376;44.802;10.332;2023-03-31T06:46:33;100843.97;;;19.98;38.01
78123;BME280;67376;44.802;10.332;2023-03-31T06:48:59;100850.00;;;20.00;38.19
78123;BME280;67376;44.802;10.332;2023-03-31T06:51:24;100836.44;;;20.00;38.31
78123;BME280;67376;44.802;10.332;2023-03-31T06:53:50;100831.63;;;20.02;37.93
78123;BME280;67376;44.802;10.332;2023-03-31T06:56:15;100831.38;;;20.03;37.38
78123;BME280;67376;44.802;10.332;2023-03-31T06:58:40;100822.19;;;20.04;38.11
78123;BME280;67376;44.802;10.332;2023-03-31T07:01:06;100821.97;;;20.06;38.09
78123;BME280;67376;44.802;10.332;2023-03-31T07:03:32;100817.38;;;20.06;37.60
78123;BME280;67376;44.802;10.332;2023-03-31T07:05:57;100806.28;;;20.08;37.59
78123;BME280;67376;44.802;10.332;2023-03-31T07:08:23;100796.28;;;20.08;38.32
78123;BME280;67376;44.802;10.332;2023-03-31T07:10:53;100798.75;;;20.10;38.26
78123;BME280;67376;44.802;10.332;2023-03-31T07:13:19;100795.00;;;20.11;37.87
78123;BME280;67376;44.802;10.332;2023-03-31T07:15:47;100785.22;;;20.10;38.24
78123;BME280;67376;44.802;10.332;2023-03-31T07:18:13;100782.25;;;20.11;38.03
78123;BME280;67376;44.802;10.332;2023-03-31T07:20:40;100786.63;;;20.13;37.74
78123;BME280;67376;44.802;10.332;2023-03-31T07:23:06;100792.88;;;20.13;37.74
78123;BME280;67376;44.802;10.332;2023-03-31T07:25:33;100788.28;;;20.14;38.38
78123;BME280;67376;44.802;10.332;2023-03-31T07:27:58;100784.75;;;20.13;38.45
78123;BME280;67376;44.802;10.332;2023-03-31T07:30:24;100780.97;;;20.14;37.82
78123;BME280;67376;44.802;10.332;2023-03-31T07:32:50;100792.66;;;20.15;38.15
78123;BME280;67376;44.802;10.332;2023-03-31T07:35:17;100793.47;;;20.15;37.66
78123;BME280;67376;44.802;10.332;2023-03-31T07:37:44;100781.56;;;20.16;38.35
78123;BME280;67376;44.802;10.332;2023-03-31T07:40:21;100780.28;;;20.19;38.33
78123;BME280;67376;44.802;10.332;2023-03-31T07:42:47;100777.91;;;20.22;38.55
78123;BME280;67376;44.802;10.332;2023-03-31T07:45:14;100771.41;;;20.23;37.63
78123;BME280;67376;44.802;10.332;2023-03-31T07:47:41;100779.31;;;20.25;38.10
78123;BME280;67376;44.802;10.332;2023-03-31T07:50:08;100789.91;;;20.26;38.36
78123;BME280;67376;44.802;10.332;2023-03-31T07:52:33;100801.34;;;20.28;38.10
78123;BME280;67376;44.802;10.332;2023-03-31T07:54:59;100799.25;;;20.30;37.82
78123;BME280;67376;44.802;10.332;2023-03-31T07:57:25;100805.72;;;20.29;38.01
78123;BME280;67376;44.802;10.332;2023-03-31T07:59:50;100802.78;;;20.31;38.32
78123;BME280;67376;44.802;10.332;2023-03-31T08:02:16;100809.84;;;20.32;38.76
78123;BME280;67376;44.802;10.332;2023-03-31T08:04:43;100806.91;;;20.33;38.13
78123;BME280;67376;44.802;10.332;2023-03-31T08:07:13;100807.97;;;20.32;38.15
78123;BME280;67376;44.802;10.332;2023-03-31T08:09:43;100803.38;;;20.33;38.02
78123;BME280;67376;44.802;10.332;2023-03-31T08:12:08;100793.59;;;20.32;38.99
78123;BME280;67376;44.802;10.332;2023-03-31T08:14:34;100796.88;;;20.34;38.04
78123;BME280;67376;44.802;10.332;2023-03-31T08:16:59;100789.00;;;20.32;39.32
78123;BME280;67376;44.802;10.332;2023-03-31T08:19:26;100777.91;;;20.34;38.25
78123;BME280;67376;44.802;10.332;2023-03-31T08:21:51;100760.81;;;20.33;38.93
78123;BME280;67376;44.802;10.332;2023-03-31T08:24:17;100756.22;;;20.34;39.10
78123;BME280;67376;44.802;10.332;2023-03-31T08:26:43;100755.41;;;20.33;39.14
78123;BME280;67376;44.802;10.332;2023-03-31T08:29:08;100757.03;;;20.34;38.85
78123;BME280;67376;44.802;10.332;2023-03-31T08:31:34;100753.28;;;20.35;39.38
78123;BME280;67376;44.802;10.332;2023-03-31T08:33:59;100749.50;;;20.36;38.67
78123;BME280;67376;44.802;10.332;2023-03-31T08:36:27;100758.47;;;20.37;39.59
78123;BME280;67376;44.802;10.332;2023-03-31T08:38:52;100768.28;;;20.38;38.76
78123;BME280;67376;44.802;10.332;2023-03-31T08:41:40;100777.00;;;20.40;38.81
78123;BME280;67376;44.802;10.332;2023-03-31T08:44:20;100781.38;;;20.41;38.71
78123;BME280;67376;44.802;10.332;2023-03-31T08:46:50;100778.66;;;20.41;38.81
78123;BME280;67376;44.802;10.332;2023-03-31T08:49:19;100773.22;;;20.41;38.81
78123;BME280;67376;44.802;10.332;2023-03-31T08:51:58;100776.31;;;20.44;39.41
78123;BME280;67376;44.802;10.332;2023-03-31T08:56:56;100752.72;;;20.45;39.14
78123;BME280;67376;44.802;10.332;2023-03-31T08:59:34;100762.50;;;20.46;38.71
78123;BME280;67376;44.802;10.332;2023-03-31T09:07:27;100767.69;;;20.48;39.80
78123;BME280;67376;44.802;10.332;2023-03-31T09:15:26;100744.47;;;20.52;38.89
78123;BME280;67376;44.802;10.332;2023-03-31T09:17:53;100750.00;;;20.45;39.33
78123;BME280;67376;44.802;10.332;2023-03-31T09:20:27;100748.81;;;20.53;39.17
78123;BME280;67376;44.802;10.332;2023-03-31T09:25:45;100739.97;;;20.57;38.94
78123;BME280;67376;44.802;10.332;2023-03-31T09:28:18;100728.53;;;20.55;39.24
78123;BME280;67376;44.802;10.332;2023-03-31T09:30:45;100710.63;;;20.54;39.62
78123;BME280;67376;44.802;10.332;2023-03-31T09:33:17;100720.63;;;20.54;39.11
78123;BME280;67376;44.802;10.332;2023-03-31T09:35:42;100724.41;;;20.53;39.50
78123;BME280;67376;44.802;10.332;2023-03-31T09:38:13;100716.88;;;20.55;39.86
78123;BME280;67376;44.802;10.332;2023-03-31T09:40:38;100704.59;;;20.52;39.60
78123;BME280;67376;44.802;10.332;2023-03-31T09:43:24;100705.91;;;20.61;39.29
78123;BME280;67376;44.802;10.332;2023-03-31T09:45:50;100695.28;;;20.60;39.40
78123;BME280;67376;44.802;10.332;2023-03-31T09:48:20;100674.06;;;20.57;39.77
78123;BME280;67376;44.802;10.332;2023-03-31T09:51:00;100677.00;;;20.55;39.98
78123;BME280;67376;44.802;10.332;2023-03-31T09:56:03;100654.47;;;20.55;39.25
78123;BME280;67376;44.802;10.332;2023-03-31T09:58:29;100651.78;;;20.55;39.83
78123;BME280;67376;44.802;10.332;2023-03-31T10:03:26;100633.03;;;20.53;39.76
78123;BME280;67376;44.802;10.332;2023-03-31T10:05:56;100629.00;;;20.56;40.37
78123;BME280;67376;44.802;10.332;2023-03-31T10:08:26;100609.78;;;20.57;40.63
78123;BME280;67376;44.802;10.332;2023-03-31T10:11:06;100597.03;;;20.58;40.04
78123;BME280;67376;44.802;10.332;2023-03-31T10:13:48;100611.44;;;20.58;40.67
78123;BME280;67376;44.802;10.332;2023-03-31T10:18:46;100603.06;;;20.60;40.16
78123;BME280;67376;44.802;10.332;2023-03-31T10:21:34;100619.09;;;20.61;40.24
78123;BME280;67376;44.802;10.332;2023-03-31T10:24:07;100614.50;;;20.62;39.70
78123;BME280;67376;44.802;10.332;2023-03-31T10:26:33;100611.41;;;20.70;40.29
78123;BME280;67376;44.802;10.332;2023-03-31T10:28:58;100611.41;;;20.70;39.65
78123;BME280;67376;44.802;10.332;2023-03-31T10:31:26;100603.25;;;20.70;40.27
78123;BME280;67376;44.802;10.332;2023-03-31T10:33:57;100597.59;;;20.71;40.51
78123;BME280;67376;44.802;10.332;2023-03-31T10:36:27;100600.88;;;20.73;40.34
78123;BME280;67376;44.802;10.332;2023-03-31T10:38:54;100594.88;;;20.71;40.34
78123;BME280;67376;44.802;10.332;2023-03-31T10:41:25;100584.50;;;20.68;39.71
78123;BME280;67376;44.802;10.332;2023-03-31T10:43:59;100573.66;;;20.68;39.69
78123;BME280;67376;44.802;10.332;2023-03-31T10:49:23;100551.97;;;20.68;39.90
78123;BME280;67376;44.802;10.332;2023-03-31T10:51:54;100541.59;;;20.65;40.47
78123;BME280;67376;44.802;10.332;2023-03-31T10:54:20;100543.00;;;20.68;40.17
78123;BME280;67376;44.802;10.332;2023-03-31T10:56:49;100536.50;;;20.69;40.72
78123;BME280;67376;44.802;10.332;2023-03-31T11:04:55;100509.97;;;20.71;40.59
78123;BME280;67376;44.802;10.332;2023-03-31T11:10:26;100498.03;;;20.72;40.62
78123;BME280;67376;44.802;10.332;2023-03-31T11:13:00;100506.41;;;20.70;40.17
78123;BME280;67376;44.802;10.332;2023-03-31T11:15:38;100505.59;;;20.70;40.41
78123;BME280;67376;44.802;10.332;2023-03-31T11:23:42;100505.34;;;20.71;40.17
78123;BME280;67376;44.802;10.332;2023-03-31T11:28:57;100511.59;;;20.72;40.75
78123;BME280;67376;44.802;10.332;2023-03-31T11:31:48;100495.81;;;20.69;40.43
78123;BME280;67376;44.802;10.332;2023-03-31T11:42:41;100449.19;;;20.72;41.00
78123;BME280;67376;44.802;10.332;2023-03-31T11:45:24;100435.41;;;20.73;41.24
78123;BME280;67376;44.802;10.332;2023-03-31T11:47:55;100420.19;;;20.72;40.97
78123;BME280;67376;44.802;10.332;2023-03-31T11:50:29;100415.56;;;20.73;40.80
78123;BME280;67376;44.802;10.332;2023-03-31T11:53:24;100409.91;;;20.74;40.84
78123;BME280;67376;44.802;10.332;2023-03-31T11:55:54;100407.44;;;20.73;40.69
78123;BME280;67376;44.802;10.332;2023-03-31T11:59:09;100391.16;;;20.73;41.09
78123;BME280;67376;44.802;10.332;2023-03-31T12:04:00;100404.25;;;20.76;41.32
78123;BME280;67376;44.802;10.332;2023-03-31T12:06:31;100394.44;;;20.75;40.68
78123;BME280;67376;44.802;10.332;2023-03-31T12:09:06;100387.13;;;20.75;40.42
78123;BME280;67376;44.802;10.332;2023-03-31T12:11:45;100364.59;;;20.75;41.21
78123;BME280;67376;44.802;10.332;2023-03-31T12:16:50;100349.97;;;20.76;41.26
78123;BME280;67376;44.802;10.332;2023-03-31T12:22:14;100332.44;;;20.84;40.76
78123;BME280;67376;44.802;10.332;2023-03-31T12:24:41;100337.75;;;20.95;41.94
78123;BME280;67376;44.802;10.332;2023-03-31T12:27:19;100325.72;;;21.08;41.65
78123;BME280;67376;44.802;10.332;2023-03-31T12:33:02;100325.19;;;20.89;41.02
78123;BME280;67376;44.802;10.332;2023-03-31T12:40:49;100312.00;;;20.76;40.70
78123;BME280;67376;44.802;10.332;2023-03-31T12:49:03;100281.31;;;20.75;41.52
78123;BME280;67376;44.802;10.332;2023-03-31T12:57:24;100277.22;;;20.73;41.58
78123;BME280;67376;44.802;10.332;2023-03-31T13:00:18;100259.88;;;20.74;41.05
78123;BME280;67376;44.802;10.332;2023-03-31T13:02:45;100253.63;;;20.73;40.93
78123;BME280;67376;44.802;10.332;2023-03-31T13:08:06;100246.31;;;20.74;40.72
78123;BME280;67376;44.802;10.332;2023-03-31T13:10:54;100237.41;;;20.79;41.23
78123;BME280;67376;44.802;10.332;2023-03-31T13:13:18;100220.00;;;20.74;40.87
78123;BME280;67376;44.802;10.332;2023-03-31T13:15:57;100228.97;;;20.75;40.80
78123;BME280;67376;44.802;10.332;2023-03-31T13:18:26;100230.84;;;20.74;40.22
78123;BME280;67376;44.802;10.332;2023-03-31T13:20:59;100232.50;;;20.75;41.04
78123;BME280;67376;44.802;10.332;2023-03-31T13:23:25;100238.50;;;20.77;40.57
78123;BME280;67376;44.802;10.332;2023-03-31T13:25:54;100240.63;;;20.75;40.54
78123;BME280;67376;44.802;10.332;2023-03-31T13:28:48;100223.28;;;20.76;40.17
78123;BME280;67376;44.802;10.332;2023-03-31T13:31:13;100220.00;;;20.74;40.32
78123;BME280;67376;44.802;10.332;2023-03-31T14:09:35;100128.34;;;20.82;41.07
78123;BME280;67376;44.802;10.332;2023-03-31T14:12:33;100115.41;;;20.89;40.11
78123;BME280;67376;44.802;10.332;2023-03-31T14:15:00;100104.13;;;20.97;40.09
78123;BME280;67376;44.802;10.332;2023-03-31T14:17:27;100101.66;;;20.95;40.54
78123;BME280;67376;44.802;10.332;2023-03-31T14:19:59;100098.94;;;20.95;40.17
78123;BME280;67376;44.802;10.332;2023-03-31T14:37:00;100063.81;;;20.84;40.47
78123;BME280;67376;44.802;10.332;2023-03-31T14:39:34;100064.94;;;20.88;40.02
78123;BME280;67376;44.802;10.332;2023-03-31T14:42:09;100058.44;;;20.89;40.54
78123;BME280;67376;44.802;10.332;2023-03-31T14:44:41;100047.59;;;20.89;39.92
78123;BME280;67376;44.802;10.332;2023-03-31T14:47:28;100040.81;;;20.91;40.52
78123;BME280;67376;44.802;10.332;2023-03-31T14:50:22;100042.72;;;20.91;40.34
78123;BME280;67376;44.802;10.332;2023-03-31T14:52:48;100035.97;;;20.93;40.52
78123;BME280;67376;44.802;10.332;2023-03-31T14:55:16;100021.56;;;20.93;40.00
78123;BME280;67376;44.802;10.332;2023-03-31T14:57:44;100024.84;;;20.95;39.95
78123;BME280;67376;44.802;10.332;2023-03-31T15:00:13;100016.72;;;20.95;40.27
78123;BME280;67376;44.802;10.332;2023-03-31T15:02:42;100018.88;;;20.93;40.60
78123;BME280;67376;44.802;10.332;2023-03-31T15:05:18;100015.53;;;20.86;39.85
78123;BME280;67376;44.802;10.332;2023-03-31T15:07:47;100014.72;;;20.85;40.07
78123;BME280;67376;44.802;10.332;2023-03-31T15:10:19;100014.47;;;20.87;40.54
78123;BME280;67376;44.802;10.332;2023-03-31T15:12:47;100014.97;;;20.84;40.22
78123;BME280;67376;44.802;10.332;2023-03-31T15:15:14;100010.63;;;20.83;40.34
78123;BME280;67376;44.802;10.332;2023-03-31T15:17:41;100005.19;;;20.83;40.24
78123;BME280;67376;44.802;10.332;2023-03-31T15:22:53;100003.56;;;20.82;39.78
78123;BME280;67376;44.802;10.332;2023-03-31T15:25:21;100000.34;;;20.85;40.59
78123;BME280;67376;44.802;10.332;2023-03-31T15:27:53;99987.28;;;20.82;40.01
78123;BME280;67376;44.802;10.332;2023-03-31T15:30:23;99985.38;;;20.82;40.03
78123;BME280;67376;44.802;10.332;2023-03-31T15:32:49;99985.38;;;20.82;40.17
78123;BME280;67376;44.802;10.332;2023-03-31T15:35:35;99979.13;;;20.82;39.96
78123;BME280;67376;44.802;10.332;2023-03-31T15:38:03;99972.91;;;20.81;40.11
78123;BME280;67376;44.802;10.332;2023-03-31T15:40:40;99981.03;;;20.81;40.17
78123;BME280;67376;44.802;10.332;2023-03-31T15:43:27;99973.19;;;20.80;40.66
78123;BME280;67376;44.802;10.332;2023-03-31T15:50:48;99963.94;;;20.81;39.70